createdAt,value
2018-05-31T00:02:36.096Z,22.8
2018-05-31T00:07:33.903Z,22.8
2018-05-31T00:12:31.625Z,22.6
2018-05-31T00:17:28.968Z,22.5
2018-05-31T00:22:26.789Z,22.5
2018-05-31T00:27:24.628Z,22.4
2018-05-31T00:32:21.971Z,22.4
2018-05-31T00:37:19.681Z,22.3
2018-05-31T00:42:17.522Z,22.4
2018-05-31T00:47:15.253Z,22.2
2018-05-31T00:52:12.621Z,22.2
2018-05-31T00:57:10.447Z,22.2
2018-05-31T01:02:08.818Z,22.2
2018-05-31T01:07:06.575Z,22
2018-05-31T01:12:04.373Z,22.1
2018-05-31T01:17:01.970Z,21.9
2018-05-31T01:21:59.583Z,21.9
2018-05-31T01:26:57.223Z,21.8
2018-05-31T01:31:54.914Z,21.8
2018-05-31T01:36:53.731Z,21.7
2018-05-31T01:41:51.594Z,21.8
2018-05-31T01:46:49.349Z,21.7
2018-05-31T01:51:46.852Z,21.5
2018-05-31T01:56:44.420Z,21.5
2018-05-31T02:01:41.972Z,21.5
2018-05-31T02:06:39.686Z,21.4
2018-05-31T02:11:37.456Z,21.4
2018-05-31T02:16:35.130Z,21.3
2018-05-31T02:21:32.730Z,21.2
2018-05-31T02:26:30.397Z,21.3
2018-05-31T02:31:27.835Z,21.1
2018-05-31T02:36:25.755Z,21.1
2018-05-31T02:41:23.552Z,21.2
2018-05-31T02:46:21.392Z,21
2018-05-31T02:51:19.163Z,21.1
2018-05-31T02:56:16.954Z,21
2018-05-31T03:01:14.474Z,20.8
2018-05-31T03:06:12.002Z,20.8
2018-05-31T03:11:09.463Z,20.7
2018-05-31T03:16:07.233Z,20.8
2018-05-31T03:21:05.130Z,20.8
2018-05-31T03:26:02.688Z,20.6
2018-05-31T03:31:00.311Z,20.6
2018-05-31T03:35:58.039Z,20.5
2018-05-31T03:40:55.739Z,20.5
2018-05-31T03:45:53.366Z,20.5
2018-05-31T03:50:51.226Z,20.6
2018-05-31T03:55:48.734Z,20.5
2018-05-31T04:00:47.223Z,20.5
2018-05-31T04:05:44.826Z,20.5
2018-05-31T04:10:42.500Z,20.4
2018-05-31T04:15:40.163Z,20.4
2018-05-31T04:20:37.970Z,20.4
2018-05-31T04:25:35.975Z,20.4
2018-05-31T04:30:33.800Z,20.4
2018-05-31T04:35:31.540Z,20.5
2018-05-31T04:40:29.301Z,20.3
2018-05-31T04:45:27.003Z,20.3
2018-05-31T04:50:24.805Z,20.3
2018-05-31T04:55:22.082Z,20.3
2018-05-31T05:00:19.756Z,20.4
2018-05-31T05:05:17.605Z,20.2
2018-05-31T05:10:15.258Z,20.3
2018-05-31T05:15:12.764Z,20.2
2018-05-31T05:20:10.322Z,20.2
2018-05-31T05:25:07.961Z,20.1
2018-05-31T05:30:05.283Z,20.1
2018-05-31T05:35:03.215Z,20.2
2018-05-31T05:40:00.921Z,20.1
2018-05-31T05:44:58.442Z,20.1
2018-05-31T05:49:57.130Z,20.1
2018-05-31T05:54:54.951Z,20.1
2018-05-31T05:59:52.771Z,20.2
2018-05-31T06:04:50.357Z,20.2
2018-05-31T06:09:48.182Z,20.2
2018-05-31T06:14:46.532Z,20.2
2018-05-31T06:19:43.935Z,20.2
2018-05-31T06:24:41.785Z,20.2
2018-05-31T06:29:39.466Z,20.3
2018-05-31T06:34:37.267Z,20.4
2018-05-31T06:39:35.099Z,20.3
2018-05-31T06:44:32.929Z,20.3
2018-05-31T06:49:30.630Z,20.3
2018-05-31T06:54:28.535Z,20.4
2018-05-31T06:59:26.226Z,20.4
2018-05-31T07:04:23.927Z,20.4
2018-05-31T07:09:21.647Z,20.5
2018-05-31T07:14:19.473Z,20.6
2018-05-31T07:19:16.934Z,20.5
2018-05-31T07:24:14.627Z,20.5
2018-05-31T07:29:12.557Z,20.7
2018-05-31T07:34:10.279Z,20.6
2018-05-31T07:39:07.928Z,20.8
2018-05-31T07:44:05.288Z,20.7
2018-05-31T07:49:03.249Z,20.7
2018-05-31T07:54:01.038Z,20.8
2018-05-31T07:58:58.668Z,20.8
2018-05-31T08:03:56.527Z,20.8
2018-05-31T08:08:54.228Z,20.9
2018-05-31T08:13:51.382Z,20.9
2018-05-31T08:18:49.182Z,20.9
2018-05-31T08:23:47.122Z,21.1
2018-05-31T08:28:44.731Z,21
2018-05-31T08:33:42.510Z,21.2
2018-05-31T08:38:40.088Z,21.1
2018-05-31T08:43:37.932Z,21.3
2018-05-31T08:48:35.312Z,21.1
2018-05-31T08:53:32.985Z,21.3
2018-05-31T08:58:30.574Z,21.3
2018-05-31T09:03:28.220Z,21.3
2018-05-31T09:08:25.999Z,21.4
2018-05-31T09:13:23.823Z,21.4
2018-05-31T09:18:21.424Z,21.5
2018-05-31T09:23:19.372Z,21.6
2018-05-31T09:28:16.809Z,21.7
2018-05-31T09:33:14.624Z,21.6
2018-05-31T09:38:12.296Z,21.6
2018-05-31T09:43:09.939Z,21.7
2018-05-31T09:48:07.723Z,21.8
2018-05-31T09:53:05.550Z,21.8
2018-05-31T09:58:02.893Z,22
2018-05-31T10:03:00.514Z,21.9
2018-05-31T10:07:58.472Z,22.1
2018-05-31T10:12:56.211Z,22
2018-05-31T10:17:53.590Z,22.1
2018-05-31T10:22:51.399Z,22.3
2018-05-31T10:27:49.143Z,22.2
2018-05-31T10:32:47.199Z,22.4
2018-05-31T10:37:45.078Z,22.3
2018-05-31T10:42:42.829Z,22.5
2018-05-31T10:47:40.530Z,22.4
2018-05-31T10:52:38.402Z,22.5
2018-05-31T10:57:35.752Z,22.5
2018-05-31T11:02:33.605Z,22.6
2018-05-31T11:07:31.588Z,22.8
2018-05-31T11:12:29.369Z,22.7
2018-05-31T11:17:27.145Z,22.8
2018-05-31T11:22:24.871Z,22.8
2018-05-31T11:27:22.551Z,22.9
2018-05-31T11:32:20.326Z,23
2018-05-31T11:37:18.031Z,23
2018-05-31T11:42:15.758Z,23.2
2018-05-31T11:47:13.684Z,23.2
2018-05-31T11:52:11.403Z,23.4
2018-05-31T11:57:09.011Z,23.4
2018-05-31T12:02:06.835Z,23.5
2018-05-31T12:07:04.525Z,23.6
2018-05-31T12:12:01.685Z,23.6
2018-05-31T12:16:59.310Z,23.7
2018-05-31T12:21:57.203Z,23.8
2018-05-31T12:26:54.691Z,23.9
2018-05-31T12:31:52.507Z,23.9
2018-05-31T12:36:50.453Z,24
2018-05-31T12:41:47.987Z,24.1
2018-05-31T12:46:45.717Z,24.2
2018-05-31T12:51:43.652Z,24.2
2018-05-31T12:56:41.620Z,24.3
2018-05-31T13:01:39.525Z,24.4
2018-05-31T13:06:37.338Z,24.5
2018-05-31T13:11:35.073Z,24.6
2018-05-31T13:16:33.024Z,24.7
2018-05-31T13:21:30.855Z,24.8
2018-05-31T13:26:28.675Z,24.8
2018-05-31T13:31:26.583Z,24.9
2018-05-31T13:36:24.421Z,24.9
2018-05-31T13:41:22.048Z,25.1
2018-05-31T13:46:20.092Z,25.2
2018-05-31T13:51:18.021Z,25.2
2018-05-31T13:56:15.947Z,25.3
2018-05-31T14:01:13.862Z,25.4
2018-05-31T14:06:11.343Z,25.5
2018-05-31T14:11:09.358Z,25.6
2018-05-31T14:16:06.994Z,25.6
2018-05-31T14:21:05.023Z,25.6
2018-05-31T14:26:03.264Z,25.7
2018-05-31T14:31:01.065Z,25.7
2018-05-31T14:35:59.371Z,25.9
2018-05-31T14:40:57.432Z,25.9
2018-05-31T14:45:55.260Z,26.1
2018-05-31T14:50:53.208Z,26.1
2018-05-31T14:55:51.252Z,26.2
2018-05-31T15:00:49.104Z,26.2
2018-05-31T15:05:46.790Z,26.2
2018-05-31T15:10:44.453Z,26.4
2018-05-31T15:15:42.160Z,26.4
2018-05-31T15:20:40.030Z,26.3
2018-05-31T15:25:37.992Z,26.4
2018-05-31T15:30:35.880Z,26.4
2018-05-31T15:35:33.934Z,26.6
2018-05-31T15:40:31.833Z,26.6
2018-05-31T15:45:29.700Z,26.6
2018-05-31T15:50:27.717Z,26.5
2018-05-31T15:55:25.589Z,26.6
2018-05-31T16:00:22.683Z,26.7
2018-05-31T16:05:20.642Z,26.6
2018-05-31T16:10:18.562Z,26.7
2018-05-31T16:15:16.300Z,26.8
2018-05-31T16:20:14.416Z,26.8
2018-05-31T16:25:12.451Z,26.7
2018-05-31T16:30:10.193Z,26.9
2018-05-31T16:35:07.476Z,26.9
2018-05-31T16:40:05.501Z,26.7
2018-05-31T16:45:03.596Z,26.9
2018-05-31T16:50:01.594Z,26.8
2018-05-31T16:54:59.468Z,26.8
2018-05-31T16:59:57.523Z,26.8
2018-05-31T17:04:55.697Z,26.8
2018-05-31T17:09:53.973Z,26.9
2018-05-31T17:14:52.355Z,26.8
2018-05-31T17:19:50.201Z,26.9
2018-05-31T17:24:48.425Z,26.9
2018-05-31T17:29:46.359Z,26.9
2018-05-31T17:34:44.310Z,26.9
2018-05-31T17:39:42.313Z,26.9
2018-05-31T17:44:40.557Z,26.9
2018-05-31T17:49:38.273Z,26.9
2018-05-31T17:54:36.040Z,26.9
2018-05-31T17:59:33.985Z,26.7
2018-05-31T18:04:32.035Z,26.8
2018-05-31T18:09:29.948Z,26.6
2018-05-31T18:14:27.825Z,26.6
2018-05-31T18:19:25.887Z,26.6
2018-05-31T18:24:23.846Z,26.6
2018-05-31T18:29:21.618Z,26.6
2018-05-31T18:34:19.096Z,26.7
2018-05-31T18:39:16.990Z,26.5
2018-05-31T18:44:14.840Z,26.5
2018-05-31T18:49:12.650Z,26.4
2018-05-31T18:54:10.330Z,26.5
2018-05-31T18:59:08.159Z,26.4
2018-05-31T19:04:06.022Z,26.3
2018-05-31T19:09:03.503Z,26.3
2018-05-31T19:14:01.363Z,26.3
2018-05-31T19:18:59.307Z,26.3
2018-05-31T19:23:57.139Z,26.3
2018-05-31T19:28:54.907Z,26.1
2018-05-31T19:33:52.791Z,26.1
2018-05-31T19:38:50.575Z,26.2
2018-05-31T19:43:48.515Z,26.1
2018-05-31T19:48:46.290Z,26.1
2018-05-31T19:53:43.695Z,26
2018-05-31T19:58:41.646Z,26
2018-05-31T20:03:39.497Z,26
2018-05-31T20:08:37.197Z,25.8
2018-05-31T20:13:35.108Z,25.9
2018-05-31T20:18:33.218Z,25.8
2018-05-31T20:23:31.261Z,25.6
2018-05-31T20:28:28.973Z,25.7
2018-05-31T20:33:26.838Z,25.6
2018-05-31T20:38:24.849Z,25.6
2018-05-31T20:43:22.391Z,25.6
2018-05-31T20:48:20.327Z,25.4
2018-05-31T20:53:18.032Z,25.5
2018-05-31T20:58:15.957Z,25.3
2018-05-31T21:03:13.629Z,25.4
2018-05-31T21:08:11.142Z,25.3
2018-05-31T21:13:08.961Z,25.3
2018-05-31T21:18:06.858Z,25.1
2018-05-31T21:23:04.695Z,25
2018-05-31T21:28:01.894Z,25.1
2018-05-31T21:32:59.660Z,25.1
2018-05-31T21:37:57.469Z,25
2018-05-31T21:42:55.286Z,25
2018-05-31T21:47:52.835Z,24.9
2018-05-31T21:52:50.681Z,24.8
2018-05-31T21:57:48.317Z,24.7
2018-05-31T22:02:46.270Z,24.6
2018-05-31T22:07:43.934Z,24.6
2018-05-31T22:12:41.591Z,24.6
2018-05-31T22:17:39.443Z,24.6
2018-05-31T22:22:37.033Z,24.5
2018-05-31T22:27:34.633Z,24.5
2018-05-31T22:32:32.389Z,24.4
2018-05-31T22:37:30.079Z,24.4
2018-05-31T22:42:27.767Z,24.3
2018-05-31T22:47:25.470Z,24.3
2018-05-31T22:52:23.346Z,24.2
2018-05-31T22:57:21.076Z,24.1
2018-05-31T23:02:18.716Z,24.1
2018-05-31T23:07:16.277Z,24
2018-05-31T23:12:14.138Z,24
2018-05-31T23:17:12.008Z,23.8
2018-05-31T23:22:09.667Z,23.9
2018-05-31T23:27:07.446Z,23.8
2018-05-31T23:32:05.245Z,23.7
2018-05-31T23:37:02.744Z,23.7
2018-05-31T23:42:00.347Z,23.6
2018-05-31T23:46:58.049Z,23.6
2018-05-31T23:51:55.831Z,23.5
2018-05-31T23:56:53.502Z,23.5
